Pagrindinis puslapis
METAR-TAF:

METAR-TAF

Oro uostai :

Saporas, Japonija

platuma: 43-07N, ilguma: 141-23E, Aukštis: 8 m

Dabartinis oras

Ataskaita buvo paskelbta 1 valandą ir 3 minutes, ne 10:00 UTC
Vėjas 8 kt iš Šiaurės
Temperatūra 14°C
Drėgmė 88%
Slėgis 1006 hPa
Matomumas 10 km arba daugiau
Mažai debesys ne aukštis 2000 ft

METAR: RJCO 051000Z 36008KT 9999 FEW020 14/12 Q1006

Laikas: 20:03 (11:03 UTC)


TAF: trūkstamas

Orai ataskaitas ir orų prognozės (METAR, TAF).

turimą stotys yra geltonos ir raudonos taškus žemėlapyje.

Perkelti pele per norėdami pamatyti stoties vardą.

Tada spustelėkite, norėdami matyti oro stebėjimo ir prognozės.

Norėdami pakeisti žemėlapį: spustelėkite ant žalios mygtukų su juodo kryžiaus žemyn,; žalią mygtuką su brūkšneliu, jei norite nutolinti; arba žalių rodyklių gretimoms žemėlapius.


METAR-TAF: